Terminal Aerodrome Forecast
Issued by NWS

Home | Current Version | Previous Version | Text Only | Print | Product List | Glossary On
Versions: 1 2 3 4 5 6 7 8 9 10 11 12 13 14 15 16 17 18 19 20 21 22 23 24 25 26 27 28 29 30 31 32 33 34 35 36 37 38 39 40 41 42 43 44 45 46
000
FTUS43 KBIS 160707 AAA
TAFJMS
TAF AMD
KJMS 160707Z 1607/1706 VRB03KT 1 1/2SM BR OVC002
     FM161100 VRB03KT P6SM BKN017
     FM161400 32005KT P6SM BKN027
     FM162200 36008KT P6SM BKN050
     FM170300 VRB04KT P6SM SCT080=

USA.gov is the U.S. government's official web portal to all federal, state and local government web resources and services.